Time;durP1;ratioP1;P1;durP2;ratioP2;P2;SDS_P1;SDS_P2;PMS_P1;PMS_P2;Temp;Humidity;BMP_temperature;BMP_pressure;BME280_temperature;BME280_humidity;BME280_pressure;Samples;Min_cycle;Max_cycle;Signal;HPM_P1;HPM_P2
2022/04/04 00:00:46;;;;;;;2.95;2.65;;;;;;;12.26;46.66;99000.85;1766137;80;21061;-60
2022/04/04 00:03:13;;;;;;;2.67;2.30;;;;;;;12.26;46.66;99007.52;1769355;79;21762;-60
2022/04/04 00:05:39;;;;;;;2.75;2.20;;;;;;;12.25;46.65;99009.87;1797467;79;20998;-60
2022/04/04 00:08:07;;;;;;;3.25;2.50;;;;;;;12.25;46.66;99007.73;1797660;79;21448;-59
2022/04/04 00:10:35;;;;;;;5.20;2.42;;;;;;;12.24;46.63;99015.39;1797529;79;21001;-60
2022/04/04 00:13:03;;;;;;;3.10;2.62;;;;;;;12.24;46.62;99020.20;1796652;79;20987;-60
2022/04/04 00:15:30;;;;;;;3.25;2.60;;;;;;;12.23;46.63;99016.40;1797453;79;21347;-59
2022/04/04 00:17:57;;;;;;;2.95;2.47;;;;;;;12.23;46.63;99020.39;1797660;79;20998;-60
2022/04/04 00:20:27;;;;;;;3.05;2.45;;;;;;;12.21;46.63;99021.95;1797515;79;20998;-59
2022/04/04 00:22:54;;;;;;;3.52;2.50;;;;;;;12.21;46.61;99028.60;1797530;79;21006;-60
2022/04/04 00:25:22;;;;;;;2.98;2.67;;;;;;;12.20;46.61;99028.27;1797502;79;20997;-60
2022/04/04 00:27:50;;;;;;;3.15;2.85;;;;;;;12.19;46.62;99029.30;1797591;79;20982;-61
2022/04/04 00:30:17;;;;;;;3.08;2.42;;;;;;;12.19;46.60;99033.30;1796382;79;20998;-60
2022/04/04 00:32:44;;;;;;;2.90;2.67;;;;;;;12.18;46.59;99037.78;1797643;79;21021;-59
2022/04/04 00:35:11;;;;;;;2.40;2.20;;;;;;;12.17;46.58;99034.82;1797543;79;20991;-60
2022/04/04 00:37:37;;;;;;;2.72;2.35;;;;;;;12.18;46.59;99051.61;1797537;79;20985;-60
2022/04/04 00:40:07;;;;;;;2.87;2.17;;;;;;;12.16;46.58;99045.14;1797464;79;22684;-60
2022/04/04 00:42:33;;;;;;;2.77;2.40;;;;;;;12.16;46.59;99044.33;1797429;79;21049;-60
2022/04/04 00:45:00;;;;;;;2.40;2.05;;;;;;;12.15;46.57;99045.36;1796947;79;20986;-61
2022/04/04 00:47:28;;;;;;;3.30;2.83;;;;;;;12.15;46.57;99049.36;1797014;79;21464;-61
2022/04/04 00:49:56;;;;;;;2.37;2.17;;;;;;;12.14;46.55;99051.70;1797482;79;21088;-60
2022/04/04 00:52:22;;;;;;;3.35;2.55;;;;;;;12.13;46.55;99048.22;1797550;79;21122;-59
2022/04/04 00:54:49;;;;;;;2.95;2.58;;;;;;;12.13;46.55;99050.03;1797469;79;21060;-60
2022/04/04 00:57:16;;;;;;;2.58;2.37;;;;;;;12.11;46.55;99050.25;1797540;79;21026;-61
2022/04/04 00:59:44;;;;;;;3.25;2.52;;;;;;;12.11;46.54;99053.41;1797567;79;21057;-59
2022/04/04 01:02:11;;;;;;;2.52;2.33;;;;;;;12.10;46.56;99051.77;1780073;79;20998;-59
2022/04/04 01:04:38;;;;;;;2.75;2.40;;;;;;;12.10;46.54;99055.77;1786745;79;21233;-60
2022/04/04 01:07:05;;;;;;;3.12;2.52;;;;;;;12.09;46.52;99056.28;1795894;79;21056;-60
2022/04/04 01:09:32;;;;;;;3.25;2.92;;;;;;;12.09;46.51;99053.63;1795787;79;21096;-60
2022/04/04 01:12:09;;;;;;;3.58;2.85;;;;;;;12.08;46.52;99056.47;1795895;79;21041;-60
2022/04/04 01:14:48;;;;;;;3.25;2.33;;;;;;;12.08;46.51;99061.80;1795948;79;21025;-62
2022/04/04 01:17:19;;;;;;;2.92;2.62;;;;;;;12.07;46.49;99061.47;1795701;79;21204;-59
2022/04/04 01:19:46;;;;;;;2.77;2.58;;;;;;;12.05;46.50;99060.33;1786519;79;21060;-60
2022/04/04 01:22:14;;;;;;;3.20;2.50;;;;;;;12.05;46.50;99064.83;1766121;81;21493;-60
2022/04/04 01:24:43;;;;;;;3.10;2.65;;;;;;;12.04;46.50;99064.53;1765900;79;21568;-59
2022/04/04 01:27:11;;;;;;;2.60;2.40;;;;;;;12.03;46.48;99069.53;1765860;80;21010;-60
2022/04/04 01:29:39;;;;;;;4.10;3.02;;;;;;;12.01;46.47;99059.07;1766175;81;21986;-60
2022/04/04 01:32:07;;;;;;;3.30;2.60;;;;;;;12.01;46.49;99064.39;1766078;81;20993;-59
2022/04/04 01:34:34;;;;;;;3.10;2.62;;;;;;;11.99;46.47;99067.28;1766314;81;21017;-60
2022/04/04 01:37:01;;;;;;;4.55;3.12;;;;;;;11.99;46.47;99070.42;1767220;79;21041;-60
2022/04/04 01:39:27;;;;;;;4.12;3.02;;;;;;;11.99;46.44;99059.77;1766095;81;21021;-60
2022/04/04 01:41:54;;;;;;;3.33;3.02;;;;;;;11.98;46.43;99068.28;1767729;78;21196;-61
2022/04/04 01:44:21;;;;;;;3.72;3.08;;;;;;;11.97;46.44;99071.94;1797325;79;21052;-60
2022/04/04 01:46:47;;;;;;;3.85;2.77;;;;;;;11.96;46.45;99068.98;1797624;79;21491;-60
2022/04/04 01:49:14;;;;;;;3.92;3.00;;;;;;;11.96;46.43;99062.84;1797372;79;21020;-60
2022/04/04 01:51:41;;;;;;;3.58;2.83;;;;;;;11.95;46.43;99072.64;1797515;79;20996;-61
2022/04/04 01:54:09;;;;;;;3.60;3.02;;;;;;;11.94;46.44;99073.68;1783942;79;21442;-60
2022/04/04 01:56:35;;;;;;;2.85;2.55;;;;;;;11.94;46.43;99080.84;1765874;81;21006;-60
2022/04/04 01:59:04;;;;;;;3.45;3.08;;;;;;;11.93;46.40;99081.33;1766078;80;20982;-60
2022/04/04 02:01:34;;;;;;;4.15;3.20;;;;;;;11.93;46.40;99084.00;1765979;81;21528;-60
2022/04/04 02:03:59;;;;;;;3.15;2.67;;;;;;;11.92;46.41;99085.03;1792450;79;21533;-60
2022/04/04 02:06:25;;;;;;;3.50;3.10;;;;;;;11.91;46.40;99086.03;1797457;79;21314;-60
2022/04/04 02:08:54;;;;;;;3.12;2.83;;;;;;;11.91;46.39;99091.87;1797533;79;21585;-60
2022/04/04 02:11:22;;;;;;;4.08;2.92;;;;;;;11.90;46.38;99088.88;1796504;79;21057;-59
2022/04/04 02:13:49;;;;;;;3.42;2.75;;;;;;;11.88;46.37;99091.72;1797507;79;20970;-60
2022/04/04 02:16:16;;;;;;;4.67;3.37;;;;;;;11.88;46.37;99090.39;1797544;79;21223;-59
2022/04/04 02:18:42;;;;;;;3.10;2.60;;;;;;;11.86;46.39;99092.91;1797432;79;21300;-60
2022/04/04 02:21:09;;;;;;;3.05;2.40;;;;;;;11.86;46.39;99094.23;1797585;79;21463;-59
2022/04/04 02:23:36;;;;;;;3.33;2.90;;;;;;;11.85;46.37;99096.09;1797549;79;21081;-59
2022/04/04 02:26:03;;;;;;;2.67;2.42;;;;;;;11.85;46.37;99090.77;1797530;79;21095;-60
2022/04/04 02:28:30;;;;;;;2.72;2.52;;;;;;;11.83;46.34;99094.13;1796429;78;21877;-59
2022/04/04 02:30:57;;;;;;;3.00;2.60;;;;;;;11.83;46.37;99098.12;1797466;79;21203;-59
2022/04/04 02:33:24;;;;;;;3.10;2.47;;;;;;;11.82;46.33;99105.80;1797522;79;21493;-60
2022/04/04 02:35:51;;;;;;;3.17;2.47;;;;;;;11.82;46.33;99111.13;1797575;79;21025;-60
2022/04/04 02:38:20;;;;;;;4.75;2.77;;;;;;;11.81;46.33;99108.13;1797335;79;21013;-60
2022/04/04 02:40:46;;;;;;;3.10;2.80;;;;;;;11.79;46.33;99106.98;1797461;79;21077;-60
2022/04/04 02:43:13;;;;;;;3.52;3.00;;;;;;;11.80;46.33;99114.45;1797501;79;21119;-59
2022/04/04 02:45:40;;;;;;;3.10;2.80;;;;;;;11.78;46.34;99112.49;1796584;79;21490;-60
2022/04/04 02:48:08;;;;;;;3.58;2.75;;;;;;;11.78;46.32;99116.00;1797518;79;20994;-60
2022/04/04 02:50:34;;;;;;;3.05;2.70;;;;;;;11.78;46.33;99125.80;1797678;79;21020;-59
2022/04/04 02:53:03;;;;;;;3.08;2.60;;;;;;;11.77;46.30;99118.84;1797651;79;21029;-59
2022/04/04 02:58:15;;;;;;;3.65;3.15;;;;;;;11.77;46.28;99134.81;1797592;79;21017;-61
2022/04/04 03:00:42;;;;;;;3.30;2.75;;;;;;;11.75;46.29;99133.67;1797693;79;21068;-59
2022/04/04 03:03:10;;;;;;;3.20;2.70;;;;;;;11.73;46.30;99126.39;1785805;79;21006;-60
2022/04/04 03:05:36;;;;;;;3.10;2.50;;;;;;;11.72;46.30;99123.39;1797713;79;21068;-60
2022/04/04 03:08:04;;;;;;;2.92;2.52;;;;;;;11.71;46.29;99128.41;1797570;79;21040;-59
2022/04/04 03:10:35;;;;;;;3.05;2.55;;;;;;;11.71;46.29;99127.60;1797886;79;21024;-60
2022/04/04 03:13:05;;;;;;;2.58;2.37;;;;;;;11.70;46.26;99132.08;1797844;79;20974;-59
2022/04/04 03:15:37;;;;;;;3.33;2.42;;;;;;;11.69;46.28;99137.09;1797532;79;21006;-59
2022/04/04 03:18:04;;;;;;;;;;;;;;;11.69;46.28;99143.75;1799584;79;21056;-60
2022/04/04 03:20:31;;;;;;;2.80;2.47;;;;;;;11.68;46.25;99147.92;1766215;81;21222;-61
2022/04/04 03:23:00;;;;;;;4.20;2.77;;;;;;;11.67;46.28;99152.94;1766417;80;21072;-60
2022/04/04 03:25:27;;;;;;;3.15;2.52;;;;;;;11.65;46.29;99148.29;1766076;79;21489;-60
2022/04/04 03:27:54;;;;;;;4.20;3.08;;;;;;;11.65;46.27;99156.27;1763651;80;21074;-60
2022/04/04 03:30:26;;;;;;;3.70;2.80;;;;;;;11.65;46.28;99166.91;1760417;81;21001;-59
2022/04/04 03:32:57;;;;;;;4.08;3.67;;;;;;;11.63;46.27;99171.12;1760579;81;21351;-59
2022/04/04 03:35:29;;;;;;;3.20;2.80;;;;;;;11.63;46.29;99168.45;1761346;80;21001;-59
2022/04/04 03:37:59;;;;;;;3.35;2.80;;;;;;;11.61;46.25;99168.64;1760545;81;20982;-60
2022/04/04 03:40:26;;;;;;;2.98;2.67;;;;;;;11.61;46.25;99173.14;1760301;81;21015;-59
2022/04/04 03:42:54;;;;;;;4.35;2.50;;;;;;;11.60;46.26;99171.48;1760410;81;21073;-59
2022/04/04 03:45:21;;;;;;;3.10;2.58;;;;;;;11.59;46.25;99176.50;1778309;80;21103;-59
2022/04/04 03:47:49;;;;;;;2.87;2.47;;;;;;;11.59;46.26;99187.95;1791714;79;21006;-61
2022/04/04 03:50:16;;;;;;;2.70;2.50;;;;;;;11.59;46.26;99180.49;1791804;80;21466;-61
2022/04/04 03:52:43;;;;;;;2.83;2.52;;;;;;;11.58;46.25;99187.63;1790724;80;21035;-59
2022/04/04 03:55:11;;;;;;;4.70;3.00;;;;;;;11.57;46.25;99188.66;1787164;80;21528;-60
2022/04/04 03:57:39;;;;;;;3.08;2.77;;;;;;;11.56;46.22;99188.32;1780245;80;21133;-60
2022/04/04 04:00:07;;;;;;;4.15;3.25;;;;;;;11.57;46.21;99192.64;1780211;80;21084;-59
2022/04/04 04:02:34;;;;;;;3.47;2.87;;;;;;;11.56;46.25;99199.48;1780513;80;21080;-60
2022/04/04 04:05:04;;;;;;;2.90;2.60;;;;;;;11.56;46.21;99206.13;1780259;80;20997;-60
2022/04/04 04:07:32;;;;;;;3.72;2.85;;;;;;;11.56;46.22;99208.79;1780157;80;21540;-60
2022/04/04 04:09:58;;;;;;;2.70;2.50;;;;;;;11.55;46.22;99210.63;1772853;80;21242;-60
2022/04/04 04:12:25;;;;;;;3.05;2.75;;;;;;;11.54;46.22;99204.98;1760316;81;21022;-59
2022/04/04 04:14:52;;;;;;;3.30;2.80;;;;;;;11.55;46.20;99205.80;1760449;81;21022;-60
2022/04/04 04:17:21;;;;;;;2.85;2.35;;;;;;;11.54;46.21;99206.31;1760431;81;21467;-60
2022/04/04 04:22:34;;;;;;;3.33;2.92;;;;;;;11.52;46.22;99214.98;1760420;81;21130;-61
2022/04/04 04:25:00;;;;;;;2.92;2.62;;;;;;;11.53;46.21;99218.46;1760348;80;21053;-59
2022/04/04 04:27:27;;;;;;;3.33;2.98;;;;;;;11.52;46.22;99222.97;1761228;80;21057;-59
2022/04/04 04:29:53;;;;;;;3.08;2.47;;;;;;;11.52;46.20;99220.30;1760317;81;21101;-59
2022/04/04 04:32:21;;;;;;;3.15;2.77;;;;;;;11.53;46.23;99230.43;1760309;81;21056;-60
2022/04/04 04:34:50;;;;;;;3.60;2.70;;;;;;;11.53;46.22;99227.28;1760481;81;21272;-60
2022/04/04 04:37:17;;;;;;;3.47;2.83;;;;;;;11.52;46.21;99230.94;1760232;81;21010;-60
2022/04/04 04:39:44;;;;;;;3.42;2.72;;;;;;;11.53;46.23;99233.94;1760663;81;21021;-60
2022/04/04 04:42:11;;;;;;;2.67;2.40;;;;;;;11.55;46.22;99235.05;1760251;81;20993;-60
2022/04/04 04:44:38;;;;;;;4.65;2.83;;;;;;;11.55;46.20;99241.22;1770382;80;21022;-59
2022/04/04 04:47:07;;;;;;;2.98;2.67;;;;;;;11.56;46.19;99251.35;1791705;79;21235;-59
2022/04/04 04:49:34;;;;;;;3.10;2.80;;;;;;;11.55;46.22;99246.55;1791608;79;21474;-61
2022/04/04 04:52:01;;;;;;;3.60;2.80;;;;;;;11.57;46.21;99256.97;1791758;80;21053;-59
2022/04/04 04:54:28;;;;;;;4.05;2.83;;;;;;;11.57;46.20;99259.16;1791561;80;21025;-60
2022/04/04 04:56:55;;;;;;;3.65;2.80;;;;;;;11.57;46.19;99253.83;1791718;79;21072;-59
2022/04/04 04:59:21;;;;;;;3.52;2.85;;;;;;;11.59;46.19;99256.31;1790037;80;22217;-59
2022/04/04 05:01:50;;;;;;;3.45;2.92;;;;;;;11.60;46.21;99255.28;1775912;80;21025;-60
2022/04/04 05:04:18;;;;;;;4.00;2.77;;;;;;;11.61;46.19;99270.25;1780245;80;21462;-59
2022/04/04 05:06:49;;;;;;;2.90;2.70;;;;;;;11.63;46.20;99271.38;1780170;80;21009;-60
2022/04/04 05:09:13;;;;;;;3.10;2.80;;;;;;;11.63;46.16;99276.20;1779865;80;20994;-60
2022/04/04 05:11:40;;;;;;;3.83;2.62;;;;;;;11.65;46.17;99281.31;1780364;80;21228;-60
2022/04/04 05:14:06;;;;;;;3.25;2.95;;;;;;;11.66;46.17;99287.79;1780169;80;21084;-59
2022/04/04 05:16:33;;;;;;;3.12;2.83;;;;;;;11.67;46.15;99289.97;1780167;80;21029;-60
2022/04/04 05:19:00;;;;;;;3.67;2.80;;;;;;;11.68;46.13;99288.94;1764466;80;21024;-59
2022/04/04 05:21:26;;;;;;;3.50;3.17;;;;;;;11.70;46.13;99286.92;1760405;81;21034;-60
2022/04/04 05:23:52;;;;;;;3.70;3.37;;;;;;;11.70;46.11;99292.23;1760307;81;21131;-60
2022/04/04 05:26:19;;;;;;;3.67;2.62;;;;;;;11.70;46.12;99294.39;1760225;80;20983;-59
2022/04/04 05:28:45;;;;;;;3.02;2.52;;;;;;;11.72;46.11;99299.53;1760412;81;21517;-60
2022/04/04 05:31:12;;;;;;;3.50;2.83;;;;;;;11.73;46.11;99303.85;1760189;79;21045;-60
2022/04/04 05:33:39;;;;;;;3.80;3.02;;;;;;;11.74;46.08;99306.81;1760297;81;21034;-61
2022/04/04 05:36:07;;;;;;;3.37;2.98;;;;;;;11.75;46.07;99305.30;1761379;80;21140;-60
2022/04/04 05:38:34;;;;;;;4.00;3.15;;;;;;;11.76;46.08;99304.80;1760192;81;21037;-61
2022/04/04 05:41:00;;;;;;;4.78;3.40;;;;;;;11.77;46.08;99313.11;1760360;81;21072;-60
2022/04/04 05:43:28;;;;;;;3.47;3.17;;;;;;;11.77;46.08;99311.27;1766991;80;21057;-59
2022/04/04 05:45:54;;;;;;;3.72;2.87;;;;;;;11.78;46.07;99311.59;1791853;79;21033;-59
2022/04/04 05:48:23;;;;;;;3.37;3.00;;;;;;;11.78;46.08;99314.27;1791505;80;21026;-60
2022/04/04 05:50:49;;;;;;;3.90;3.05;;;;;;;11.80;46.08;99314.05;1791545;80;20986;-60
2022/04/04 05:53:16;;;;;;;3.70;3.20;;;;;;;11.82;46.05;99325.36;1790690;80;21025;-59
2022/04/04 05:55:42;;;;;;;3.55;3.00;;;;;;;11.83;46.04;99323.00;1791619;79;21115;-61
2022/04/04 05:58:09;;;;;;;3.25;2.92;;;;;;;11.84;46.06;99328.66;1791608;80;21470;-61
2022/04/04 06:00:36;;;;;;;3.45;3.15;;;;;;;11.84;46.06;99324.67;1791590;80;21020;-60
2022/04/04 06:03:03;;;;;;;3.60;3.30;;;;;;;11.86;46.04;99330.63;1791604;80;21061;-59
2022/04/04 06:05:30;;;;;;;4.35;3.42;;;;;;;11.88;46.06;99333.08;1787400;79;22344;-59
2022/04/04 06:07:58;;;;;;;3.37;2.83;;;;;;;11.89;46.03;99331.59;1788685;80;21490;-60
2022/04/04 06:10:25;;;;;;;3.35;2.92;;;;;;;11.90;46.03;99332.42;1761171;80;21009;-60
2022/04/04 06:12:53;;;;;;;3.87;3.22;;;;;;;11.93;46.03;99342.70;1760367;81;23074;-60
2022/04/04 06:15:20;;;;;;;3.30;3.00;;;;;;;11.94;46.02;99341.70;1760163;81;21010;-60
2022/04/04 06:17:47;;;;;;;3.35;2.92;;;;;;;11.95;46.00;99339.34;1760308;81;21037;-59
2022/04/04 06:20:13;;;;;;;4.25;3.00;;;;;;;11.97;46.02;99338.66;1760608;81;20994;-59
2022/04/04 06:22:40;;;;;;;3.92;3.30;;;;;;;11.98;45.97;99347.79;1760713;81;21022;-60
2022/04/04 06:25:09;;;;;;;4.58;3.27;;;;;;;11.99;45.97;99349.45;1761325;80;21029;-59
2022/04/04 06:27:36;;;;;;;3.40;3.10;;;;;;;12.02;45.96;99350.09;1760203;81;21065;-60
2022/04/04 06:30:04;;;;;;;3.87;3.10;;;;;;;12.02;45.95;99352.23;1760452;81;21013;-60
2022/04/04 06:32:33;;;;;;;4.30;3.45;;;;;;;12.04;45.93;99354.20;1765696;81;21072;-60
2022/04/04 06:35:00;;;;;;;3.72;2.85;;;;;;;12.06;45.93;99357.50;1765974;81;21053;-60
2022/04/04 06:37:26;;;;;;;3.30;3.00;;;;;;;12.07;45.92;99355.66;1766126;80;21494;-59
2022/04/04 06:39:53;;;;;;;3.55;2.80;;;;;;;12.09;45.91;99363.80;1766013;81;21048;-60
2022/04/04 06:43:42;;;;;;;3.92;3.55;;;;;;;12.15;45.88;99363.56;1786048;79;28564;-59
2022/04/04 06:46:09;;;;;;;3.37;3.02;;;;;;;12.12;45.87;99364.73;1757387;81;20950;-59
2022/04/04 06:48:36;;;;;;;3.35;3.05;;;;;;;12.15;45.84;99369.70;1757319;81;21864;-61
2022/04/04 06:51:02;;;;;;;3.52;3.22;;;;;;;12.17;45.82;99374.84;1757286;81;21065;-59
2022/04/04 06:53:29;;;;;;;3.05;2.65;;;;;;;12.19;45.82;99376.81;1757180;81;20991;-60
2022/04/04 06:55:55;;;;;;;3.77;3.22;;;;;;;12.20;45.80;99377.12;1757267;81;21010;-59
2022/04/04 06:58:22;;;;;;;3.77;3.22;;;;;;;12.21;45.80;99374.79;1757582;81;21013;-59
2022/04/04 07:00:48;;;;;;;3.58;3.10;;;;;;;12.23;45.78;99379.42;1756179;81;21767;-60
2022/04/04 07:03:15;;;;;;;2.52;2.27;;;;;;;12.25;45.75;99388.55;1757110;81;20942;-60
2022/04/04 07:05:41;;;;;;;2.92;2.62;;;;;;;12.26;45.76;99388.34;1757348;81;21010;-59
2022/04/04 07:08:09;;;;;;;3.30;2.80;;;;;;;12.28;45.73;99389.50;1757213;81;21577;-59
2022/04/04 07:10:37;;;;;;;3.35;2.98;;;;;;;12.29;45.73;99386.65;1755336;81;21061;-61
2022/04/04 07:13:05;;;;;;;3.42;2.90;;;;;;;12.31;45.70;99392.61;1754064;81;21346;-61
2022/04/04 07:15:34;;;;;;;3.50;2.87;;;;;;;12.33;45.70;99400.42;1699830;81;21030;-59
2022/04/04 07:18:01;;;;;;;3.25;2.95;;;;;;;12.34;45.69;99395.40;1732380;81;21037;-60
2022/04/04 07:20:28;;;;;;;3.60;3.22;;;;;;;12.35;45.68;99395.22;1727137;82;21101;-60
2022/04/04 07:22:55;;;;;;;3.72;3.25;;;;;;;12.37;45.66;99399.03;1727195;83;21073;-59
2022/04/04 07:25:22;;;;;;;3.58;3.27;;;;;;;12.38;45.66;99398.00;1727019;83;21251;-60
2022/04/04 07:27:49;;;;;;;3.47;2.95;;;;;;;12.40;45.66;99400.00;1727229;83;21525;-59
2022/04/04 07:30:17;;;;;;;5.55;3.22;;;;;;;12.41;45.64;99397.64;1727051;83;21014;-58
2022/04/04 07:32:45;;;;;;;3.00;2.70;;;;;;;12.43;45.65;99404.94;1727112;82;21041;-59
2022/04/04 07:35:11;;;;;;;3.00;2.70;;;;;;;12.45;45.63;99409.56;1728056;81;20994;-60
2022/04/04 07:37:42;;;;;;;3.10;2.80;;;;;;;12.46;45.61;99402.39;1727113;83;21611;-59
2022/04/04 07:40:17;;;;;;;3.05;2.70;;;;;;;12.48;45.60;99407.87;1727127;83;21065;-61
2022/04/04 07:42:44;;;;;;;3.15;2.85;;;;;;;12.51;45.60;99409.32;1729383;82;21030;-60
2022/04/04 07:45:13;;;;;;;3.10;2.80;;;;;;;12.51;45.59;99409.32;1744176;82;21086;-61
2022/04/04 07:47:42;;;;;;;3.20;2.90;;;;;;;12.55;45.57;99419.91;1744482;82;21004;-59
2022/04/04 07:50:11;;;;;;;3.87;2.92;;;;;;;12.56;45.56;99414.92;1743115;81;21547;-61
2022/04/04 07:52:38;;;;;;;3.22;2.92;;;;;;;12.57;45.55;99410.73;1744164;82;21011;-60
2022/04/04 07:55:06;;;;;;;2.92;2.62;;;;;;;12.60;45.53;99414.86;1758274;81;21077;-60
2022/04/04 07:57:34;;;;;;;3.30;2.75;;;;;;;12.63;45.52;99422.97;1743506;81;21011;-60
2022/04/04 08:00:01;;;;;;;3.17;2.87;;;;;;;12.64;45.49;99416.13;1743715;82;21074;-60
2022/04/04 08:02:27;;;;;;;2.92;2.62;;;;;;;12.66;45.49;99418.60;1743624;82;21222;-60
2022/04/04 08:04:54;;;;;;;3.20;2.90;;;;;;;12.69;45.46;99422.20;1743514;82;21066;-61
2022/04/04 08:07:20;;;;;;;3.12;2.83;;;;;;;12.71;45.45;99412.17;1742482;82;21073;-62
2022/04/04 08:09:48;;;;;;;3.75;2.83;;;;;;;12.74;45.45;99414.48;1743586;81;21058;-61
2022/04/04 08:12:15;;;;;;;2.60;2.40;;;;;;;12.75;45.43;99420.95;1743596;82;21074;-60
2022/04/04 08:14:45;;;;;;;3.30;3.00;;;;;;;12.78;45.39;99417.89;1743676;81;20999;-60
2022/04/04 08:17:11;;;;;;;3.95;2.85;;;;;;;12.81;45.41;99414.55;1738062;81;21043;-61
2022/04/04 08:19:39;;;;;;;2.60;2.40;;;;;;;12.83;45.37;99408.01;1743665;81;21035;-60
2022/04/04 08:22:06;;;;;;;3.10;2.80;;;;;;;12.86;45.35;99407.61;1743491;81;21033;-60
2022/04/04 08:24:32;;;;;;;3.77;2.80;;;;;;;12.89;45.33;99409.91;1737316;81;21065;-60
2022/04/04 08:26:59;;;;;;;3.42;2.92;;;;;;;12.93;45.33;99409.02;1713938;82;21244;-60
2022/04/04 08:29:26;;;;;;;3.00;2.70;;;;;;;12.96;45.33;99417.95;1713802;83;21526;-60
2022/04/04 08:31:53;;;;;;;3.00;2.70;;;;;;;12.99;45.31;99409.58;1713935;83;21007;-60
2022/04/04 08:34:20;;;;;;;3.17;2.80;;;;;;;13.02;45.35;99409.70;1679387;85;21041;-60
2022/04/04 08:36:46;;;;;;;2.90;2.70;;;;;;;13.04;45.32;99416.99;1679552;85;21592;-60
2022/04/04 08:39:13;;;;;;;3.33;2.98;;;;;;;13.07;45.32;99415.28;1679475;85;21146;-59
2022/04/04 08:41:39;;;;;;;2.92;2.72;;;;;;;13.09;45.32;99411.92;1680326;84;21093;-59
2022/04/04 08:44:07;;;;;;;3.00;2.70;;;;;;;13.11;45.31;99413.36;1704163;82;21208;-61
2022/04/04 08:46:34;;;;;;;3.15;2.85;;;;;;;13.15;45.26;99407.98;1707962;84;21494;-59
2022/04/04 08:49:06;;;;;;;3.37;2.83;;;;;;;13.17;45.23;99412.63;1707904;84;21106;-61
2022/04/04 08:51:34;;;;;;;3.27;2.98;;;;;;;13.21;45.24;99413.55;1707953;84;21483;-60
2022/04/04 08:54:01;;;;;;;3.47;2.90;;;;;;;13.24;45.24;99415.84;1707752;84;21008;-60
2022/04/04 08:56:27;;;;;;;3.00;2.37;;;;;;;13.27;45.21;99411.44;1707724;84;20987;-59
2022/04/04 08:58:55;;;;;;;3.20;2.90;;;;;;;13.30;45.18;99407.91;1706801;84;21490;-60
2022/04/04 09:01:23;;;;;;;3.17;2.87;;;;;;;13.33;45.17;99410.72;1707720;84;21026;-61
2022/04/04 09:04:07;;;;;;;3.02;2.50;;;;;;;13.36;45.17;99415.65;1707794;84;21154;-60
2022/04/04 09:06:52;;;;;;;3.70;2.98;;;;;;;13.40;45.08;99414.75;1707660;84;21061;-60
2022/04/04 09:09:28;;;;;;;2.60;2.40;;;;;;;13.42;45.06;99410.86;1707804;84;21034;-59
2022/04/04 09:12:10;;;;;;;2.50;2.30;;;;;;;13.46;45.08;99408.63;1743074;81;20992;-59
2022/04/04 09:14:48;;;;;;;2.60;2.40;;;;;;;13.49;45.11;99406.92;1743932;82;21506;-60
2022/04/04 09:17:17;;;;;;;2.80;2.60;;;;;;;13.53;45.09;99405.51;1742381;82;22200;-60
2022/04/04 09:19:44;;;;;;;2.90;2.60;;;;;;;13.57;45.14;99400.91;1743752;81;21081;-61
2022/04/04 09:22:15;;;;;;;2.50;2.30;;;;;;;13.61;45.18;99397.86;1741962;81;21039;-59
2022/04/04 09:24:59;;;;;;;3.40;2.60;;;;;;;13.66;45.22;99402.11;1735802;81;21588;-60
2022/04/04 09:27:36;;;;;;;2.55;2.35;;;;;;;13.70;45.22;99399.36;1735034;82;21531;-59
2022/04/04 09:30:08;;;;;;;2.80;2.52;;;;;;;13.76;45.24;99401.23;1735220;82;21234;-60
2022/04/04 09:32:43;;;;;;;2.80;2.57;;;;;;;13.80;45.39;99399.81;1731101;82;21070;-59
2022/04/04 09:35:13;;;;;;;3.40;2.70;;;;;;;13.87;45.45;99391.82;1713883;82;21038;-61
2022/04/04 09:37:48;;;;;;;2.45;2.25;;;;;;;13.93;45.45;99409.23;1714204;83;21070;-59
2022/04/04 09:40:21;;;;;;;2.70;2.50;;;;;;;13.98;45.60;99407.28;1713845;83;21085;-61
2022/04/04 09:42:58;;;;;;;3.00;2.70;;;;;;;14.03;45.39;99408.86;1739357;81;21153;-60
2022/04/04 09:45:28;;;;;;;2.98;2.60;;;;;;;14.09;45.31;99411.25;1756677;81;21278;-60
2022/04/04 09:48:02;;;;;;;2.25;2.05;;;;;;;14.15;45.54;99399.77;1757297;81;21065;-61
2022/04/04 09:50:45;;;;;;;2.80;2.60;;;;;;;14.23;45.33;99395.58;1719858;83;21044;-59
2022/04/04 09:53:22;;;;;;;2.52;2.33;;;;;;;14.30;45.23;99391.61;1721003;83;26415;-59
2022/04/04 09:55:52;;;;;;;3.10;2.40;;;;;;;14.38;45.41;99394.09;1720891;83;21117;-61
2022/04/04 09:58:21;;;;;;;2.67;2.00;;;;;;;14.45;45.40;99386.11;1720654;83;21057;-60
2022/04/04 10:00:52;;;;;;;2.17;1.98;;;;;;;14.50;45.14;99384.97;1720746;83;21026;-61
2022/04/04 10:03:18;;;;;;;2.87;2.45;;;;;;;14.57;45.24;99388.52;1720412;83;21028;-59
2022/04/04 10:06:02;;;;;;;2.65;2.45;;;;;;;14.64;45.26;99396.53;1720912;83;21065;-60
2022/04/04 10:08:30;;;;;;;2.30;2.10;;;;;;;14.68;45.01;99396.44;1666537;84;21236;-60
2022/04/04 10:10:56;;;;;;;2.25;2.05;;;;;;;14.71;44.79;99391.52;1691838;84;21013;-60
2022/04/04 10:13:25;;;;;;;2.60;2.20;;;;;;;14.75;44.72;99396.76;1691912;84;21227;-60
2022/04/04 10:15:52;;;;;;;2.37;2.17;;;;;;;14.81;44.76;99396.45;1691882;84;21009;-62
2022/04/04 10:18:20;;;;;;;1.95;1.82;;;;;;;14.87;44.98;99392.14;1691930;84;21094;-60
2022/04/04 10:20:53;;;;;;;2.62;2.42;;;;;;;14.94;45.06;99399.15;1691952;84;22131;-60
2022/04/04 10:23:19;;;;;;;2.47;2.27;;;;;;;15.00;44.94;99395.35;1695609;83;21561;-60
2022/04/04 10:25:49;;;;;;;2.15;1.95;;;;;;;15.04;44.72;99391.23;1691849;84;21076;-61
2022/04/04 10:28:38;;;;;;;2.20;2.00;;;;;;;15.07;44.59;99398.34;1730192;82;21023;-60
2022/04/04 10:31:23;;;;;;;2.22;1.95;;;;;;;15.10;44.48;99403.30;1720606;83;21544;-60
2022/04/04 10:33:50;;;;;;;2.37;2.15;;;;;;;15.12;44.35;99398.55;1720972;83;21235;-60
2022/04/04 10:36:22;;;;;;;2.27;2.08;;;;;;;15.13;44.21;99401.52;1720650;83;21010;-61
2022/04/04 10:38:55;;;;;;;2.30;2.10;;;;;;;15.13;44.11;99398.84;1721101;83;21049;-60
2022/04/04 10:41:27;;;;;;;2.50;2.30;;;;;;;15.14;43.99;99401.84;1709494;83;21557;-60
2022/04/04 10:43:55;;;;;;;2.25;2.02;;;;;;;15.14;43.91;99400.52;1717566;83;21695;-59
2022/04/04 10:46:24;;;;;;;2.35;2.15;;;;;;;15.16;43.80;99404.81;1715367;83;21307;-60
2022/04/04 10:49:00;;;;;;;2.10;1.90;;;;;;;15.20;43.80;99404.70;1715546;83;21002;-60
2022/04/04 10:51:31;;;;;;;2.17;1.98;;;;;;;15.24;44.00;99408.13;1715217;83;21009;-60
2022/04/04 10:54:10;;;;;;;2.45;2.17;;;;;;;15.30;44.05;99399.78;1715347;83;21010;-60
2022/04/04 10:56:41;;;;;;;2.20;2.00;;;;;;;15.34;44.16;99395.13;1715445;83;21162;-60
2022/04/04 10:59:24;;;;;;;2.25;2.05;;;;;;;15.41;44.18;99404.48;1714510;83;21805;-59
2022/04/04 11:01:53;;;;;;;2.33;2.12;;;;;;;15.48;44.23;99397.80;1715381;83;21040;-61
2022/04/04 11:04:30;;;;;;;2.05;1.77;;;;;;;15.54;44.24;99398.30;1715684;83;21041;-61
2022/04/04 11:10:06;;;;;;;2.00;1.80;;;;;;;15.64;44.06;99389.83;1715585;83;21061;-61
2022/04/04 11:12:33;;;;;;;2.10;1.90;;;;;;;15.69;43.99;99394.05;1715245;83;21057;-60
2022/04/04 11:15:07;;;;;;;2.15;1.80;;;;;;;15.71;43.89;99387.45;1710400;83;21033;-60
2022/04/04 11:17:57;;;;;;;1.75;1.65;;;;;;;15.73;43.79;99388.09;1715379;83;21588;-60
2022/04/04 11:20:33;;;;;;;2.20;2.00;;;;;;;15.77;43.74;99392.51;1715381;83;21517;-60
2022/04/04 11:23:08;;;;;;;1.95;1.75;;;;;;;15.81;43.66;99397.75;1715396;82;21045;-59
2022/04/04 11:25:37;;;;;;;1.72;1.62;;;;;;;15.82;43.59;99392.70;1733088;82;21821;-60
2022/04/04 11:28:07;;;;;;;2.37;2.17;;;;;;;15.85;43.55;99396.28;1751339;82;21046;-59
2022/04/04 11:30:35;;;;;;;2.05;1.85;;;;;;;15.86;43.50;99396.61;1715602;83;21037;-59
2022/04/04 11:33:02;;;;;;;1.90;1.70;;;;;;;15.86;43.44;99393.93;1722539;82;21050;-61
2022/04/04 11:35:32;;;;;;;2.00;1.80;;;;;;;15.87;43.41;99394.22;1719409;82;21077;-60
2022/04/04 11:38:11;;;;;;;1.98;1.80;;;;;;;15.88;43.31;99384.34;1715526;83;22198;-61
2022/04/04 11:40:42;;;;;;;1.87;1.77;;;;;;;15.89;43.18;99388.66;1715122;83;21041;-59
2022/04/04 11:43:10;;;;;;;2.00;1.80;;;;;;;15.92;43.08;99385.56;1715261;82;21017;-60
2022/04/04 11:45:39;;;;;;;1.90;1.70;;;;;;;15.95;42.93;99385.65;1715450;83;22053;-60
2022/04/04 11:48:23;;;;;;;1.95;1.70;;;;;;;15.98;42.88;99384.72;1714320;83;21037;-60
2022/04/04 11:50:49;;;;;;;2.10;1.90;;;;;;;16.02;42.80;99387.27;1721406;83;21162;-59